Albany, GA (31701)

12:51 AM EDT on September 20, 2014 (GMT -0400)
Southwest Georgia Regional | Change Station
CLOSE
Current Station
Airport
Location: Albany,
Elevation: 194 ft
Nearby Weather Stations

Elev 194 ft 31.54 °N, 84.19 °W | Updated 58 minutes ago

Clear
Clear
70 °F
Feels Like 70 °F
N
6
Wind Variable Wind from NE

Today
High -- | Low -- °F
--% Chance of Precip.
Yesterday
High -- | Low -- °F
Precip. -- in
7:23 AM 7:35 PM
Waning Crescent, 14% visible
Pressure 30.06 in
Visibility 10.0 miles
Clouds Clear
Dew Point 68 °F
Humidity 93%
Rainfall 0.00 in
Snow Depth Not available.
UV 0 out of 12
Pollen 7.80 out of 12
Air Quality Not available.
Flu Activity Not available.
METAR KABY 200353Z 05005KT 10SM CLR 21/20 A3007 RMK AO2 SLP179 T02110200 PNO $

More Conditions Fewer Conditions

Pressure 30.06 in
Visibility 10.0 miles
Clouds Clear
Dew Point 68 °F
Humidity 93%
Rainfall 0.00 in
Snow Depth Not available.
UV 0 out of 12
Pollen 7.80 out of 12
Air Quality Not available.
Flu Activity Not available.
METAR KABY 200353Z 05005KT 10SM CLR 21/20 A3007 RMK AO2 SLP179 T02110200 PNO $

More Conditions Fewer Conditions

10-Day Weather Forecast

Almanac

Astronomy

Sep. 20, 2014 Rise Set
Actual Time 7:23 AM EDT 7:35 PM EDT
Civil Twilight 6:59 AM EDT 8:00 PM EDT
Nautical Twilight 6:31 AM EDT 8:28 PM EDT
Astronomical Twilight 6:02 AM EDT 8:57 PM EDT
Moon 4:12 AM EDT 5:30 PM EDT
Length of Visible Light 13h 00m
Length of Day
12h 12m
Tomorrow will be 1m 54s shorter.
Waning Crescent, 14% of the Moon is Illuminated
Today
Waning Crescent
Sep 24
New
Oct 1
First Quarter
Oct 8
Full
Oct 15
Last Quarter

Today's Extremes

State Highs State Lows

Community

WunderPhotos

Upload Photos

1,754,777 photos uploaded!

WunderBlogs® & News

Nearby

Snow Depth

Station Depth Elevation
No new snow has been reported.

Earthquake Activity

City Distance Mag. Time & Date
No recent earthquake activity has been reported nearby.
Minimum magnitude displayed is 2.5.

Coastal Water Temperatures

Place Temperature
No Stations Reporting

Nearby Weather Stations